Airfield :
LOGIN :

Register | Disclaimer

   EN    FR    IT 

 










Legend :    VFR   Marginal VFR   IFR   Intensive IFR   Very Intensive IFR
Visi :
Ceiling :
>= 8 km
>= 3000ft
5 to 8 km
1000 to 3000 ft
1500m to 5 km
500 to 1000 ft
800 to 1500m
200 to 500 ft
< 800m
< 200 ft
Symbols :   Thunderstorms  Fog  Heavy snow  Heavy precipitations  Wind > 20 kt
SIGMETs :     Misc.  Thunderstorms  Icing  Turbulence  Mountain Waves  Volcanic Ashes






- Airport Elevation : 796 ft
- IATA code : SYT


LFLN - Saint-Yan

CURRENT METAR :
  • 280530Z AUTO 24007KT 210V270 CAVOK 13/09 Q1014 TEMPO FEW025TCU

EXPIRED METARs :
  • 280500Z AUTO 23006KT 170V270 9999 BKN028 OVC058 13/10 Q1014
  • 280430Z AUTO 18004KT 150V210 9999 OVC032 12/09 Q1014
  • 280400Z AUTO 18004KT 9999 BKN035 OVC041 12/09 Q1013
  • 280330Z AUTO 18005KT 150V220 9999 BKN038 BKN045 OVC052 11/09 Q1013

TAF TAF LFLN
Valid from the 28 at 06:00 until the 28 at 15:00 UTC


280500Z 2806/2815 20006KT 9999 SCT025 BKN040
TEMPO 2806/2812 -SHRA FEW025TCU
TEMPO 2812/2815 27015G25KT 4000 SHRA SCT025TCU



MET'MAP, your aeronautical weather chart ! - Copyright ORBIFLY December 2007 - Disclaimer

ORBIFLY MET'MAP TEAM :

Programming & Development : Alexandra Zaïnal
Concept & original design : Baudouin d'Aumeries
Assistance for programming : Marc-Olivier Méhu
Technical & hardware support : Manuel Goepfert

Contact : metmap@orbifly.com




SOURCES & CREDITS :

   NOAA